Date,TemperatureHighF,TemperatureAvgF,TemperatureLowF,DewpointHighF,DewpointAvgF,DewpointLowF,HumidityHigh,HumidityAvg,HumidityLow,PressureMaxIn,PressureMinIn,WindSpeedMaxMPH,WindSpeedAvgMPH,GustSpeedMaxMPH,PrecipitationSumIn
2014-1-1,20.3,18.4,17.8,13.9,12.8,11.4,84,78,68,30.50,30.47,3,0,5,0.00
2014-1-2,33.2,13.0,0.9,29.2,9.8,-2.6,90,87,68,30.48,29.94,20,3,20,0.00
2014-1-3,16.2,5.6,-0.1,13.2,0.5,-7.2,89,80,64,30.56,29.81,21,5,22,0.00
2014-1-4,36.9,15.3,-5.5,32.7,7.2,-9.1,90,71,42,30.67,30.42,23,3,23,0.00
2014-1-5,49.6,30.2,21.1,44.9,23.0,12.1,90,75,51,30.45,30.01,14,2,14,0.11
2014-1-6,57.1,41.9,25.1,53.7,36.9,13.8,91,82,61,30.01,29.35,26,6,27,0.46
2014-1-7,25.1,10.8,4.9,17.5,-3.5,-11.4,86,52,35,30.39,29.58,27,8,32,0.00
2014-1-8,24.9,11.7,3.8,21.8,0.1,-7.9,90,59,45,30.64,30.38,14,3,15,0.00
2014-1-9,39.2,19.1,11.2,35.9,10.5,4.3,91,70,41,30.78,30.58,16,2,18,0.00
2014-1-10,52.2,27.6,8.6,48.1,24.5,5.8,91,88,85,30.74,30.38,4,0,5,0.08
2014-1-11,59.1,49.1,32.7,56.4,45.9,29.3,91,89,86,30.37,29.34,26,4,32,0.74
2014-1-12,52.4,40.6,29.2,49.8,31.4,23.6,91,70,58,30.06,29.34,28,6,32,0.03
2014-1-13,51.1,39.9,28.6,42.6,30.9,23.3,90,71,48,30.22,29.98,26,3,26,0.00
2014-1-14,49.5,45.7,40.7,45.2,42.2,38.3,91,87,81,29.99,29.68,15,3,16,0.71
2014-1-15,59.1,38.8,30.9,55.0,34.5,28.6,91,85,65,30.10,29.83,13,1,14,0.01
2014-1-16,58.1,35.9,29.5,53.4,32.7,26.4,91,88,85,30.01,29.91,5,0,7,0.00
2014-1-17,61.5,36.1,27.9,56.6,28.4,22.8,91,75,46,30.07,29.98,16,2,16,0.00
2014-1-18,48.9,32.3,28.2,44.6,29.3,25.1,90,89,85,30.00,29.69,8,1,9,0.32
2014-1-19,33.2,29.1,25.7,28.3,23.7,20.8,91,80,65,29.82,29.64,23,4,23,0.02
2014-1-20,39.8,33.2,22.8,31.7,23.1,6.0,87,67,48,29.96,29.58,27,5,30,0.08
2014-1-21,23.6,14.5,8.2,20.6,6.0,-2.3,90,70,45,30.15,29.96,16,3,17,0.00
2014-1-22,18.0,10.0,5.4,11.6,0.4,-6.6,88,66,44,30.02,29.77,18,5,22,0.00
2014-1-23,18.5,10.0,1.8,6.0,-2.3,-6.8,85,58,41,30.30,30.02,18,4,19,0.00
2014-1-24,32.7,10.3,4.7,28.7,-1.9,-6.7,89,58,37,30.41,30.19,20,4,25,0.00
2014-1-25,34.3,24.5,12.8,24.6,16.6,1.2,87,72,58,30.20,29.44,30,6,31,0.00
2014-1-26,22.4,16.5,12.2,16.8,4.6,-4.4,81,60,42,30.00,29.45,29,6,30,0.00
2014-1-27,42.3,28.4,17.4,36.5,18.6,-0.4,89,68,37,30.11,29.64,22,5,27,0.02
2014-1-28,17.4,13.6,9.4,6.2,-4.9,-11.0,67,43,32,30.44,30.10,22,5,22,0.00
2014-1-29,23.8,17.2,11.2,18.7,1.4,-6.9,89,53,26,30.36,30.11,17,3,21,0.00
2014-1-30,41.4,20.2,6.2,37.2,9.0,-3.7,90,64,35,30.57,30.32,13,2,14,0.00
2014-1-31,39.2,31.0,16.9,31.1,18.0,9.4,88,61,37,30.33,30.13,17,3,18,0.00
2014-2-1,62.2,36.4,27.8,56.9,26.0,20.1,89,67,45,30.44,30.12,18,2,18,0.00
2014-2-2,53.4,41.8,34.3,48.5,35.6,30.5,90,79,57,30.14,29.94,19,2,19,0.00
2014-2-3,44.8,31.0,20.9,41.3,26.7,18.4,90,84,61,30.40,30.14,13,1,13,0.00
2014-2-4,57.8,28.2,13.3,52.9,23.6,10.7,90,83,61,30.57,30.39,10,1,10,0.20
2014-2-5,43.3,27.0,22.4,39.4,24.2,19.4,90,89,85,30.43,29.70,14,2,17,0.00
2014-2-6,51.3,22.2,13.4,46.9,16.2,8.2,90,79,46,30.38,30.04,10,1,11,0.14
2014-2-7,46.9,22.1,6.1,42.6,13.1,2.8,90,70,48,30.39,30.28,17,2,19,0.02
2014-2-8,46.7,21.5,5.7,42.4,7.5,1.8,90,57,34,30.42,30.23,15,2,16,0.00
2014-2-9,34.0,25.0,18.4,30.8,16.3,4.9,88,70,47,30.28,30.06,11,2,12,0.08
2014-2-10,48.8,22.0,12.8,44.3,14.6,6.7,89,74,50,30.33,30.01,19,3,20,0.00
2014-2-11,49.4,19.1,7.8,45.1,10.6,3.0,90,71,44,30.56,30.33,18,3,18,0.00
2014-2-12,45.0,17.8,-0.6,40.5,8.8,-4.0,90,71,32,30.70,30.53,7,1,9,0.00
2014-2-13,33.9,25.5,12.6,30.2,22.4,9.2,90,88,80,30.53,29.07,16,3,17,0.00
2014-2-14,46.2,30.7,26.7,41.5,26.0,22.4,90,82,75,29.84,28.92,33,6,37,0.75
2014-2-15,51.2,29.7,22.2,47.5,26.2,19.6,90,87,69,29.94,29.57,14,2,16,0.11
2014-2-16,28.8,23.9,19.9,25.2,13.5,7.9,90,65,47,30.09,29.57,25,7,27,0.00
2014-2-17,36.5,19.4,6.2,33.0,3.2,-4.0,89,51,26,30.49,30.09,24,5,27,0.00
2014-2-18,31.4,19.5,3.8,27.4,16.3,-1.3,90,87,77,30.49,30.01,15,2,16,0.00
2014-2-19,52.6,29.5,14.9,48.1,26.3,12.2,90,88,82,30.23,29.81,14,2,18,0.41
2014-2-20,48.8,38.4,31.5,43.5,28.8,22.5,90,71,37,30.30,29.94,13,3,15,0.54
2014-2-21,57.0,36.8,32.6,53.2,33.3,29.6,89,87,85,30.24,29.75,9,1,10,0.33
2014-2-22,47.4,37.5,32.6,33.6,30.0,25.9,90,76,45,30.07,29.94,16,3,18,0.01
2014-2-23,57.1,42.6,30.8,52.9,29.1,25.4,89,60,41,30.07,29.84,13,1,14,0.00
2014-2-24,41.0,29.8,21.5,29.2,13.2,5.1,74,50,38,30.06,29.80,28,7,29,0.00
2014-2-25,36.0,21.0,15.8,31.6,8.7,5.4,88,59,47,30.11,29.98,24,4,25,0.00
2014-2-26,46.9,20.5,9.4,42.3,8.5,-6.7,89,62,33,30.06,29.86,27,3,30,0.00
2014-2-27,40.5,18.2,4.5,36.0,9.9,-5.8,89,71,43,30.05,29.69,36,3,36,0.00
2014-2-28,46.3,14.2,5.7,41.4,-2.3,-10.6,89,51,24,30.58,30.05,19,4,20,0.00
2014-3-1,33.5,21.0,0.0,24.3,11.4,-3.4,89,68,42,30.59,30.22,18,3,20,0.00
2014-3-2,46.9,32.8,29.4,41.2,21.7,16.8,86,64,54,30.22,30.05,13,2,14,0.00
2014-3-3,41.8,20.2,8.2,37.3,7.9,-2.5,88,59,39,30.41,30.07,18,4,22,0.00
2014-3-4,39.0,19.9,2.1,34.6,7.1,-1.5,89,61,32,30.53,30.38,12,1,12,0.00
2014-3-5,44.8,25.0,16.1,40.0,18.5,8.3,89,76,56,30.60,30.35,12,2,12,0.00
2014-3-6,51.4,19.9,7.1,46.7,6.2,-7.1,89,59,23,30.77,30.60,9,2,13,0.00
2014-3-7,55.0,26.0,3.0,51.1,18.8,-0.2,89,75,44,30.65,30.05,10,1,11,0.00
2014-3-8,52.6,38.9,21.2,44.2,26.6,17.9,89,64,36,30.05,29.77,16,2,17,0.00
2014-3-9,51.9,33.4,28.0,46.8,16.4,11.1,87,51,34,30.02,29.93,21,4,22,0.00
2014-3-10,46.9,34.5,27.4,42.1,22.9,10.8,86,63,45,29.99,29.71,14,2,14,0.00
2014-3-11,56.2,44.2,32.4,43.4,31.2,27.8,89,63,36,29.79,29.58,19,4,22,0.01
2014-3-12,57.1,40.9,34.6,52.0,34.0,28.3,88,77,55,29.79,29.05,10,1,18,0.50
2014-3-13,35.6,19.1,12.7,32.1,11.3,-1.4,89,72,47,30.08,29.03,30,9,31,0.05
2014-3-14,36.8,25.5,7.8,32.7,12.2,-0.7,89,59,31,30.32,30.03,21,4,24,0.00
2014-3-15,54.5,42.1,35.4,37.4,31.7,23.7,87,67,41,30.04,29.74,29,6,35,0.04
2014-3-16,36.6,28.2,23.4,23.6,9.8,1.2,70,47,30,30.30,29.98,22,7,24,0.00
2014-3-17,46.1,22.7,14.4,41.5,5.8,-3.2,87,50,27,30.29,30.15,13,2,18,0.00
2014-3-18,56.3,27.4,12.4,51.1,14.8,2.9,88,61,33,30.47,30.28,10,2,10,0.00
2014-3-19,55.2,33.8,19.0,49.2,22.1,14.9,89,66,32,30.50,30.06,14,2,16,0.01
2014-3-20,48.6,39.8,32.1,42.0,31.2,26.6,89,73,45,30.08,29.70,26,5,30,0.44
2014-3-21,40.2,35.7,29.5,26.1,22.1,20.1,68,58,47,30.14,29.84,30,7,31,0.00
2014-3-22,54.8,38.3,22.3,49.6,26.7,18.7,88,65,39,30.16,29.75,31,5,35,0.00
2014-3-23,56.9,33.6,24.7,51.8,18.4,4.8,87,56,33,30.15,29.98,20,4,22,0.00
2014-3-24,36.3,23.0,14.0,32.0,3.7,-2.1,86,45,26,30.28,30.15,24,4,24,0.00
2014-3-25,49.7,28.8,13.9,45.1,15.3,6.9,88,60,33,30.26,29.99,22,2,22,0.00
2014-3-26,35.5,28.6,21.8,31.4,10.7,-1.7,85,48,29,30.14,29.70,41,9,41,0.00
2014-3-27,43.4,29.8,17.8,28.4,4.8,-2.3,58,36,19,30.44,30.14,23,6,26,0.00
2014-3-28,56.4,43.5,32.3,45.7,36.1,18.3,88,76,56,30.38,30.04,26,4,26,0.05
2014-3-29,51.4,43.4,38.1,44.4,38.5,34.8,88,83,68,30.31,30.03,15,3,17,1.07
2014-3-30,44.6,38.2,34.2,40.5,35.0,31.3,89,88,85,30.03,29.69,16,4,17,2.28
2014-3-31,41.3,35.8,32.4,38.1,31.2,28.5,89,83,73,30.10,29.77,18,4,19,0.50
2014-4-1,54.6,41.8,31.5,38.3,30.3,26.2,88,65,46,30.20,30.09,15,3,16,0.00
2014-4-2,58.3,44.7,29.3,51.0,31.8,24.9,88,63,42,30.21,30.08,13,2,15,0.00
2014-4-3,65.3,44.4,29.5,60.3,27.7,22.1,88,55,31,30.21,30.10,16,3,17,0.00
2014-4-4,47.9,40.5,34.8,39.3,31.1,26.2,87,70,49,30.23,29.94,15,3,17,0.16
2014-4-5,49.4,40.5,34.8,39.8,31.7,23.0,89,72,46,30.03,29.77,28,6,28,0.23
2014-4-6,56.3,41.9,29.4,51.4,23.5,18.5,87,52,24,30.28,30.03,17,3,19,0.00
2014-4-7,57.2,45.2,30.4,49.8,29.6,17.7,88,59,26,30.31,29.93,26,3,26,0.03
2014-4-8,62.7,51.8,42.4,55.1,45.3,33.1,88,79,58,29.95,29.36,26,4,30,0.67
2014-4-9,55.5,46.2,36.4,47.3,28.1,9.2,87,53,26,30.05,29.58,20,5,24,0.00
2014-4-10,59.2,44.7,27.1,54.0,24.6,11.9,87,48,23,30.25,30.05,29,4,30,0.00
2014-4-11,66.7,56.5,46.1,50.1,42.6,34.3,81,61,43,30.11,29.97,21,4,24,0.00
2014-4-12,70.4,55.3,42.4,65.6,37.6,29.8,88,56,27,30.27,30.02,21,3,23,0.06
2014-4-13,66.9,55.4,43.5,53.6,43.3,34.4,86,65,36,30.31,30.06,21,4,22,0.00
2014-4-14,72.2,63.6,57.9,57.3,54.0,51.8,83,72,58,30.08,29.93,36,8,50,0.00
2014-4-15,64.1,58.2,38.2,58.3,54.2,35.2,89,87,80,29.95,29.60,34,8,36,1.20
2014-4-16,44.1,34.8,28.2,40.1,23.3,14.6,89,65,35,30.70,29.79,28,6,28,0.40
2014-4-17,41.7,34.2,27.6,34.3,23.3,16.3,87,65,48,30.90,30.71,17,3,19,0.00
2014-4-18,46.5,36.7,27.2,41.3,29.7,23.6,88,76,59,30.76,30.34,11,2,13,0.00
2014-4-19,61.3,48.1,34.7,43.0,32.1,26.4,88,58,30,30.50,30.26,29,4,29,0.00
2014-4-20,56.9,44.4,30.4,38.1,25.2,15.3,88,51,22,30.59,30.42,13,2,14,0.00
2014-4-21,68.2,50.4,29.8,47.4,30.5,18.3,88,53,15,30.42,29.91,14,2,17,0.00
2014-4-22,70.0,53.1,46.2,44.2,41.2,39.0,86,67,34,29.91,29.61,17,3,20,0.00
2014-4-23,51.5,51.5,51.5,47.8,47.8,47.8,87,87,87,29.51,29.51,1,0,17,0.00
2014-4-28,47.0,46.4,45.7,39.5,39.1,38.8,77,76,74,30.29,30.24,13,2,14,0.00
2014-4-29,45.6,40.6,38.7,38.8,35.2,33.8,87,81,74,30.61,30.29,19,4,19,0.01
2014-4-30,48.4,40.7,38.2,44.7,36.7,34.1,88,86,76,30.62,30.22,14,2,15,0.74
2014-5-1,68.1,52.9,41.3,61.3,48.7,37.4,89,86,76,30.22,29.71,10,2,12,1.13
2014-5-2,71.0,57.6,47.5,65.6,42.5,35.8,89,59,35,29.86,29.70,22,3,26,0.00
2014-5-3,65.7,55.5,40.0,52.4,40.6,36.6,89,60,35,29.92,29.75,16,2,18,0.00
2014-5-4,58.6,52.7,47.8,44.5,39.4,34.1,83,62,43,29.77,29.59,38,7,38,0.00
2014-5-5,60.9,52.6,45.3,46.9,40.2,37.9,81,63,47,29.92,29.68,20,5,23,0.00
2014-5-6,63.1,51.2,39.1,59.0,35.0,29.1,88,57,35,30.10,29.89,22,4,27,0.00
2014-5-7,65.9,52.2,38.7,41.9,31.1,27.0,80,47,25,30.25,30.10,19,3,20,0.00
2014-5-8,64.3,55.4,41.0,56.8,43.4,33.4,88,66,35,30.25,30.13,12,2,13,0.00
2014-5-9,68.5,55.2,54.6,63.6,51.4,49.4,88,87,80,30.25,30.16,6,0,6,0.11
2014-5-10,77.9,62.4,56.2,62.3,57.5,52.7,89,85,51,30.13,29.78,38,4,38,0.14
2014-5-11,75.3,64.0,57.4,58.0,46.4,29.5,88,58,19,30.06,29.82,23,4,24,0.02
2014-5-13,48.6,46.7,44.3,40.6,37.2,35.9,76,70,65,30.39,30.35,7,1,9,0.00
2014-5-14,70.8,56.1,42.1,50.8,43.9,36.8,86,66,40,30.40,30.30,14,2,18,0.00
2014-5-15,73.8,64.1,57.2,63.5,58.4,49.3,88,82,68,30.35,30.23,17,4,20,0.00
2014-5-16,66.3,62.7,61.3,60.6,58.9,57.7,89,87,81,30.23,29.99,29,6,29,0.39
2014-5-17,71.5,63.5,53.9,59.5,50.7,40.5,89,66,35,30.11,29.85,28,5,28,0.46
2014-5-18,68.0,57.3,46.2,51.6,40.5,33.3,79,55,33,30.16,30.05,16,2,17,0.00
2014-5-19,64.1,56.0,45.8,57.6,37.4,33.6,83,51,35,30.16,30.06,21,3,21,0.00
2014-5-20,72.3,59.4,48.7,58.1,43.6,39.1,88,59,33,30.08,29.97,19,2,21,0.00
2014-5-21,76.0,59.3,43.4,52.3,46.6,40.4,89,66,32,30.04,29.93,16,2,19,0.00
2014-5-22,63.7,55.3,51.6,54.9,50.7,47.6,88,85,68,29.99,29.89,14,1,14,0.34
2014-5-23,60.8,54.3,49.5,56.6,50.8,46.4,90,88,86,30.02,29.91,10,1,10,0.08
2014-5-24,66.3,55.4,48.3,62.0,49.3,45.2,90,81,55,30.10,29.99,9,1,9,0.04
2014-5-25,71.1,59.0,49.2,59.1,52.1,45.8,90,79,55,30.14,30.05,14,1,14,0.00
2014-5-26,76.6,64.4,49.5,62.4,54.8,46.1,89,72,50,30.07,29.84,19,2,20,0.01
2014-5-27,75.2,61.0,47.6,64.3,53.7,44.5,89,78,57,29.97,29.83,13,2,15,0.11
2014-5-28,51.4,46.7,41.2,47.6,43.6,38.5,90,89,87,30.28,29.93,14,2,16,0.07
2014-5-29,66.4,52.3,36.5,58.1,40.6,33.6,90,68,37,30.32,30.20,11,1,11,0.00
2014-5-30,72.3,56.2,43.6,58.5,48.6,40.6,89,77,46,30.22,30.02,12,1,16,0.24
2014-5-31,67.3,55.5,42.9,62.1,45.2,29.0,90,71,33,30.35,30.09,15,2,15,0.00
2014-6-1,76.0,60.8,40.8,55.5,44.0,36.9,88,58,32,30.40,30.28,11,2,13,0.00
2014-6-2,80.6,66.5,46.7,60.8,50.5,42.7,88,59,34,30.29,30.03,14,2,15,0.00
2014-6-3,81.8,66.8,52.1,63.7,56.0,47.7,89,70,51,30.06,29.90,19,2,21,0.00
2014-6-4,67.3,60.0,51.5,61.9,54.9,44.5,89,84,61,29.92,29.80,11,1,11,0.47
2014-6-5,68.0,59.3,54.2,63.5,56.0,51.0,90,89,86,29.82,29.67,9,1,9,0.46
2014-6-6,74.9,62.1,53.7,70.2,53.6,50.2,90,75,52,29.92,29.74,25,3,27,0.00
2014-6-7,81.6,67.5,52.8,63.8,55.8,49.4,89,69,40,29.98,29.90,13,2,13,0.00
2014-6-8,84.1,71.9,55.8,69.8,57.0,52.5,89,63,37,29.97,29.88,10,1,12,0.00
2014-6-9,74.7,66.5,59.9,61.5,57.2,54.0,88,72,53,30.02,29.92,11,2,15,0.00
2014-6-10,79.8,66.7,59.6,68.2,61.4,54.8,89,83,66,30.13,29.95,13,2,15,0.01
2014-6-11,69.2,61.9,57.1,57.2,52.3,49.2,87,72,52,30.21,30.12,15,2,17,0.00
2014-6-12,69.3,61.7,56.3,65.6,57.0,50.6,89,84,78,30.20,30.08,10,1,10,0.01
2014-6-13,65.6,61.4,59.0,62.3,57.8,55.6,90,88,87,30.08,29.81,8,1,8,0.95
2014-6-14,72.7,63.8,55.6,66.3,57.9,50.5,90,82,66,29.96,29.83,16,2,18,0.01
2014-6-15,78.3,65.2,52.9,68.5,54.3,49.1,88,69,49,30.10,29.95,20,4,22,0.00
2014-6-16,80.5,67.2,52.1,57.8,50.7,46.6,85,59,33,30.18,30.05,9,2,12,0.00
2014-6-17,84.2,72.2,60.4,72.1,63.5,53.0,89,74,59,30.10,29.88,15,2,15,0.00
2014-6-18,83.5,74.0,66.0,67.3,64.5,60.8,90,73,52,29.97,29.76,24,4,24,0.05
2014-6-19,80.7,70.5,59.1,66.9,57.2,42.6,90,65,36,29.99,29.91,17,2,19,0.00
2014-6-20,73.4,63.5,50.7,51.4,45.4,40.1,83,54,31,30.02,29.91,20,2,20,0.00
2014-6-21,72.9,61.1,46.5,53.8,47.9,42.8,88,64,42,30.02,29.91,13,2,16,0.00
2014-6-22,76.3,63.2,47.9,65.9,50.7,45.1,90,66,43,30.07,29.97,9,1,10,0.00
2014-6-23,79.2,65.1,50.3,60.5,53.1,47.5,90,67,42,30.21,30.07,15,2,19,0.00
2014-6-24,79.8,67.0,54.7,63.6,56.4,48.4,89,70,53,30.22,30.04,19,3,19,0.00
2014-6-25,82.9,72.7,62.9,71.0,65.0,56.1,88,77,65,30.06,29.87,17,4,21,0.00
2014-6-26,83.1,69.9,59.8,70.6,64.8,55.6,90,84,65,30.03,29.79,12,2,13,0.24
2014-6-27,78.0,65.5,54.1,57.4,51.4,40.3,90,64,32,30.25,30.03,13,1,13,0.00
2014-6-28,84.9,69.0,51.7,69.1,54.8,45.4,90,65,27,30.31,30.25,10,1,11,0.00
2014-6-29,83.4,69.8,54.4,65.3,58.2,51.3,90,69,39,30.30,30.13,15,2,16,0.00
2014-6-30,84.6,72.5,58.7,66.7,61.1,55.2,89,69,49,30.15,29.95,16,3,18,0.00
2014-7-1,85.0,75.3,65.4,73.0,67.3,60.3,89,77,65,29.97,29.81,19,4,22,0.00
2014-7-2,87.8,76.4,69.4,76.7,69.9,64.9,89,81,67,29.93,29.82,18,3,24,0.00
2014-7-3,89.4,78.1,67.1,76.7,71.0,63.7,90,80,60,30.03,29.88,28,3,28,0.29
2014-7-4,73.6,65.6,60.8,69.2,62.3,57.4,90,89,86,30.01,29.83,13,1,14,1.61
2014-7-5,76.6,67.0,56.2,58.2,52.1,45.7,90,62,38,30.06,29.82,24,6,27,0.19
2014-7-6,81.3,71.0,59.3,61.0,55.4,47.9,79,59,41,30.06,29.89,21,4,21,0.00
2014-7-7,84.2,74.3,66.5,70.2,65.5,60.8,86,75,59,29.91,29.71,20,4,26,0.01
2014-7-8,87.3,76.7,68.1,72.5,68.0,63.8,87,76,56,29.82,29.69,20,4,22,0.01
2014-7-9,85.0,76.8,68.5,69.2,65.8,61.6,88,70,50,29.95,29.66,17,4,21,0.00
2014-7-10,79.4,70.8,62.7,64.8,60.4,55.8,89,71,50,30.17,29.94,12,1,12,0.00
2014-7-11,80.5,69.7,60.2,63.3,58.4,55.6,90,69,46,30.26,30.17,11,1,12,0.00
2014-7-12,85.3,72.5,58.4,66.7,60.4,55.2,90,68,44,30.26,30.14,12,2,13,0.00
2014-7-13,81.6,72.9,64.0,69.6,63.8,58.5,89,74,55,30.15,29.92,22,4,28,0.01
2014-7-14,81.3,73.6,68.9,72.4,68.9,65.5,90,85,71,29.93,29.86,16,2,17,0.69
2014-7-15,81.7,74.5,69.5,74.9,70.2,66.4,90,87,76,29.88,29.76,19,3,23,0.45
2014-7-16,74.7,70.9,66.2,70.8,67.3,63.2,90,89,84,29.88,29.76,9,1,9,0.27
2014-7-17,79.3,69.2,60.9,67.1,59.8,55.6,90,74,47,30.11,29.87,10,1,10,0.02
2014-7-18,80.0,67.5,56.1,65.5,57.9,53.2,91,74,45,30.27,30.11,10,1,10,0.01
2014-7-19,76.7,65.6,56.7,68.5,59.8,53.8,90,82,60,30.30,30.24,7,0,7,0.01
2014-7-20,76.9,66.0,56.9,66.4,57.5,53.9,90,75,48,30.26,30.16,10,1,11,0.00
2014-7-21,81.4,67.4,55.8,71.2,58.8,52.6,90,76,45,30.25,30.16,10,1,10,0.00
2014-7-22,86.7,74.4,60.6,70.6,65.3,57.6,90,75,53,30.19,30.01,12,2,14,0.00
2014-7-23,87.2,76.3,67.8,74.8,68.9,63.5,87,78,63,30.01,29.76,17,3,18,0.00
2014-7-24,76.2,70.8,64.4,70.0,64.8,59.6,90,82,64,29.93,29.75,12,1,13,0.00
2014-7-25,78.7,67.8,53.7,65.9,57.5,50.8,90,71,48,30.02,29.92,11,1,11,0.00
2014-7-26,80.1,69.2,57.7,66.4,60.3,54.8,90,75,47,30.01,29.91,15,2,20,0.00
2014-7-27,76.3,68.8,63.9,70.8,65.3,60.7,90,89,82,29.93,29.67,10,1,12,0.47
2014-7-28,81.0,71.5,64.0,72.2,66.0,61.0,90,83,68,29.69,29.44,29,3,29,1.35
2014-7-29,75.1,66.2,58.6,69.7,58.4,54.6,91,77,53,29.98,29.57,12,2,13,0.00
2014-7-30,76.7,65.6,54.9,61.3,55.4,52.0,91,72,44,30.09,29.97,10,1,10,0.00
2014-7-31,78.9,68.6,55.1,63.9,58.9,52.2,90,73,52,30.20,30.08,14,2,15,0.00
2014-8-1,81.6,71.1,59.8,74.9,64.5,56.9,90,80,61,30.25,30.19,16,2,16,0.00
2014-8-2,67.6,64.7,60.3,64.2,61.0,57.0,91,88,80,30.25,30.16,12,1,14,0.06
2014-8-3,76.5,65.9,58.5,66.9,60.7,55.9,91,84,68,30.18,30.07,6,1,7,0.02
2014-8-4,83.7,71.9,63.0,70.8,64.6,59.9,91,79,54,30.08,30.01,11,2,12,0.00
2014-8-5,85.5,74.9,64.0,70.4,65.0,61.0,91,73,46,30.05,29.90,10,1,10,0.00
2014-8-6,78.9,69.9,59.0,70.4,62.2,55.0,90,78,55,29.91,29.79,13,2,13,0.01
2014-8-7,76.8,64.2,55.4,63.9,56.4,51.4,91,77,49,29.99,29.87,22,2,22,0.14
2014-8-8,79.0,66.9,54.2,62.7,56.3,51.3,91,71,46,30.07,29.98,14,2,15,0.01
2014-8-9,83.2,70.7,58.6,69.2,58.8,54.1,86,68,41,30.12,30.05,10,1,12,0.00
2014-8-10,84.3,71.1,56.9,67.9,58.2,54.0,90,67,38,30.16,30.11,9,1,10,0.00
2014-8-11,84.2,69.6,57.9,66.7,60.4,55.0,91,74,42,30.18,30.12,17,2,18,0.00
2014-8-12,77.9,68.8,58.3,65.4,60.6,55.4,90,76,49,30.16,30.03,17,3,18,0.00
2014-8-13,69.0,66.1,62.5,65.0,62.5,59.5,90,88,83,30.03,29.62,16,3,22,2.60
2014-8-14,72.2,62.6,53.6,59.4,54.2,50.1,91,76,48,29.90,29.70,17,3,17,0.01
2014-8-15,68.1,60.1,53.0,57.0,53.2,50.2,91,79,58,29.98,29.86,16,2,16,0.01
2014-8-16,73.9,64.0,55.0,59.3,54.5,51.1,88,73,51,30.03,29.94,18,2,18,0.00
2014-8-17,76.3,66.6,56.6,67.6,58.9,53.4,90,77,55,29.95,29.79,14,2,14,0.02
2014-8-18,75.3,63.2,52.8,60.4,53.8,49.6,90,74,45,29.93,29.82,16,2,17,0.00
2014-8-19,78.5,62.9,48.6,62.5,52.9,45.8,91,73,43,30.00,29.91,12,1,12,0.00
2014-8-20,80.7,66.0,51.4,69.9,55.6,48.6,91,72,47,30.09,29.99,10,1,11,0.01
2014-8-21,76.7,65.9,53.1,64.9,57.9,50.2,91,77,53,30.14,30.07,8,1,9,0.00
2014-8-22,66.3,62.9,61.6,61.1,59.8,58.6,90,89,83,30.11,30.09,4,0,4,0.25
2014-8-31,74.1,72.1,70.2,71.0,69.0,67.1,90,90,90,30.00,29.97,8,1,10,0.06
2014-9-1,85.7,75.9,68.2,76.0,69.2,64.8,91,81,62,30.01,29.91,11,1,11,0.01
2014-9-2,87.0,77.2,68.3,75.1,70.7,64.9,90,81,62,29.95,29.74,15,2,19,0.00
2014-9-3,80.2,72.2,62.2,70.6,62.1,57.9,88,72,50,30.11,29.71,23,3,23,0.00
2014-9-4,82.3,69.3,54.6,68.0,59.3,51.7,91,72,50,30.23,30.11,12,1,14,0.00
2014-9-5,84.1,74.1,62.9,71.5,66.8,59.7,90,79,63,30.19,30.00,16,3,17,0.00
2014-9-6,85.6,76.7,67.7,75.3,71.2,63.3,90,83,68,30.00,29.76,23,3,23,0.01
2014-9-7,73.0,65.2,61.7,63.4,59.5,54.8,91,83,55,30.15,29.92,14,2,14,0.05
2014-9-8,73.0,72.9,72.9,51.0,51.0,50.7,46,46,46,30.39,30.39,5,4,14,0.01
2015-1-1,25.4,25.4,25.4,4.9,4.9,4.9,41,41,41,30.11,30.11,11,11,0,0.00
2015-1-2,25.4,25.4,25.4,4.9,4.9,4.9,41,41,41,30.11,30.11,11,11,0,0.00